Time;durP1;ratioP1;P1;durP2;ratioP2;P2;SDS_P1;SDS_P2;PMS_P1;PMS_P2;Temp;Humidity;BMP_temperature;BMP_pressure;BME280_temperature;BME280_humidity;BME280_pressure;Samples;Min_cycle;Max_cycle;Signal;HPM_P1;HPM_P2
2022/08/22 00:02:28;;;;;;;2.20;1.67;;;23.90;58.60;;;;;;10533419;28;20118;-48
2022/08/22 00:07:46;;;;;;;3.00;1.80;;;23.90;58.70;;;;;;10514942;28;20076;-50
2022/08/22 00:13:13;;;;;;;2.55;1.80;;;23.90;58.70;;;;;;10533018;28;20348;-49
2022/08/22 00:18:20;;;;;;;2.42;1.67;;;23.90;58.80;;;;;;10532804;28;20035;-51
2022/08/22 00:23:32;;;;;;;2.58;1.67;;;23.90;58.80;;;;;;10514634;28;20036;-49
2022/08/22 00:28:45;;;;;;;2.42;1.45;;;23.90;58.70;;;;;;10497902;28;20115;-49
2022/08/22 00:33:57;;;;;;;1.65;1.50;;;23.90;58.70;;;;;;10505427;28;20501;-50
2022/08/22 00:39:14;;;;;;;2.55;2.33;;;23.90;58.70;;;;;;10531960;28;20099;-48
2022/08/22 00:44:46;;;;;;;3.65;1.85;;;23.90;58.70;;;;;;10531586;28;20039;-49
2022/08/22 00:50:42;;;;;;;2.50;1.63;;;23.90;58.70;;;;;;10531900;28;20028;-50
2022/08/22 00:56:10;;;;;;;2.30;1.70;;;23.90;58.70;;;;;;10531610;28;20024;-50
2022/08/22 01:01:15;;;;;;;2.60;1.85;;;23.90;58.70;;;;;;10515577;28;20032;-49
2022/08/22 01:06:16;;;;;;;2.20;1.60;;;23.90;58.70;;;;;;10513261;28;20027;-49
2022/08/22 01:12:00;;;;;;;3.05;1.98;;;23.90;58.70;;;;;;10530379;28;20035;-51
2022/08/22 01:17:31;;;;;;;3.33;2.17;;;23.90;58.70;;;;;;10497150;28;20067;-51
2022/08/22 01:23:16;;;;;;;2.72;1.80;;;23.80;58.70;;;;;;10491858;28;20121;-51
2022/08/22 01:28:50;;;;;;;2.42;1.65;;;23.90;58.70;;;;;;10515668;28;20172;-48
2022/08/22 01:34:34;;;;;;;2.50;1.73;;;23.80;58.70;;;;;;10504663;28;20028;-50
2022/08/22 01:39:58;;;;;;;5.47;2.50;;;23.80;58.60;;;;;;10529976;28;20048;-48
2022/08/22 01:45:37;;;;;;;2.80;1.88;;;23.80;58.70;;;;;;10530343;28;20044;-49
2022/08/22 01:51:02;;;;;;;9.98;2.03;;;23.80;58.70;;;;;;10529500;28;20477;-49
2022/08/22 01:56:20;;;;;;;2.58;2.08;;;23.80;58.70;;;;;;10496332;28;20040;-51
2022/08/22 02:02:06;;;;;;;3.88;1.70;;;23.80;58.70;;;;;;10513189;28;20028;-51
2022/08/22 02:07:47;;;;;;;2.72;1.98;;;23.80;58.70;;;;;;10512486;28;20487;-49
2022/08/22 02:13:34;;;;;;;1.92;1.60;;;23.80;58.70;;;;;;10511198;28;20471;-49
2022/08/22 02:19:04;;;;;;;2.88;2.33;;;23.80;58.80;;;;;;10527693;28;20064;-49
2022/08/22 02:24:58;;;;;;;2.70;2.10;;;23.80;58.70;;;;;;10518626;28;20036;-48
2022/08/22 02:30:24;;;;;;;2.67;2.00;;;23.80;58.80;;;;;;10492591;28;20028;-50
2022/08/22 02:35:53;;;;;;;2.22;1.60;;;23.80;58.80;;;;;;10523779;28;20043;-49
2022/08/22 02:41:05;;;;;;;3.25;2.00;;;23.80;58.80;;;;;;10531583;28;20040;-51
2022/08/22 02:46:28;;;;;;;3.08;2.08;;;23.80;58.80;;;;;;10536225;28;20028;-50
2022/08/22 02:51:40;;;;;;;2.58;2.00;;;23.80;58.80;;;;;;10518285;28;20107;-48
2022/08/22 02:57:18;;;;;;;2.00;1.80;;;23.80;58.80;;;;;;10535877;28;20065;-52
2022/08/22 03:02:37;;;;;;;2.65;2.15;;;23.70;58.80;;;;;;10536202;28;20032;-49
2022/08/22 03:07:49;;;;;;;2.87;2.17;;;23.80;58.80;;;;;;10536073;28;20024;-51
2022/08/22 03:13:10;;;;;;;2.25;1.50;;;23.80;58.80;;;;;;10518689;28;20376;-47
2022/08/22 03:18:52;;;;;;;2.30;1.75;;;23.70;58.80;;;;;;10517960;28;20053;-50
2022/08/22 03:24:22;;;;;;;3.10;2.10;;;23.70;58.80;;;;;;10511763;28;20059;-49
2022/08/22 03:29:35;;;;;;;2.90;1.80;;;23.70;58.80;;;;;;10510680;28;20042;-49
2022/08/22 03:34:52;;;;;;;2.92;2.03;;;23.70;58.80;;;;;;10514484;28;20117;-49
2022/08/22 03:40:05;;;;;;;2.88;1.55;;;23.70;58.90;;;;;;10518346;28;20063;-49
2022/08/22 03:45:32;;;;;;;3.10;1.60;;;23.70;58.80;;;;;;10517070;28;20054;-47
2022/08/22 03:51:33;;;;;;;3.40;1.95;;;23.70;58.90;;;;;;10534361;28;20028;-50
2022/08/22 03:57:53;;;;;;;3.47;1.65;;;23.70;58.90;;;;;;10511494;28;20457;-49
2022/08/22 04:03:29;;;;;;;4.45;2.28;;;23.70;58.90;;;;;;10489072;28;20117;-50
2022/08/22 04:08:54;;;;;;;3.20;1.90;;;23.70;58.90;;;;;;10533158;28;20122;-49
2022/08/22 04:14:13;;;;;;;2.38;1.70;;;23.70;58.90;;;;;;10533074;28;20044;-50
2022/08/22 04:19:46;;;;;;;2.55;1.85;;;23.70;58.90;;;;;;10532739;28;20031;-51
2022/08/22 04:25:42;;;;;;;2.63;2.13;;;23.70;59.00;;;;;;10516069;28;20046;-48
2022/08/22 04:31:05;;;;;;;2.97;2.67;;;23.60;58.90;;;;;;10465324;28;20073;-49
2022/08/22 04:36:48;;;;;;;3.70;2.10;;;23.60;59.00;;;;;;10505189;28;20024;-51
2022/08/22 04:42:01;;;;;;;2.35;1.80;;;23.60;58.90;;;;;;10533778;28;20036;-49
2022/08/22 04:47:23;;;;;;;2.47;1.40;;;23.60;59.00;;;;;;10515453;28;20064;-51
2022/08/22 04:53:08;;;;;;;2.95;1.83;;;23.60;59.00;;;;;;10502448;28;20431;-52
2022/08/22 04:58:27;;;;;;;2.78;2.00;;;23.60;59.00;;;;;;10533295;28;20321;-53
2022/08/22 05:03:30;;;;;;;4.65;2.03;;;23.60;59.00;;;;;;10533601;28;20028;-48
2022/08/22 05:08:36;;;;;;;2.20;1.80;;;23.60;59.00;;;;;;10515059;28;20077;-48
2022/08/22 05:13:53;;;;;;;2.83;1.95;;;23.60;59.00;;;;;;10514793;28;20028;-50
2022/08/22 05:19:09;;;;;;;3.58;1.90;;;23.60;59.00;;;;;;10532269;28;20051;-50
2022/08/22 05:24:21;;;;;;;2.17;1.63;;;23.60;59.00;;;;;;10514938;28;20039;-51
2022/08/22 05:29:28;;;;;;;2.10;1.67;;;23.60;59.00;;;;;;10491061;28;20021;-50
2022/08/22 05:34:37;;;;;;;5.90;3.67;;;23.60;59.00;;;;;;10493936;28;20379;-51
2022/08/22 05:39:45;;;;;;;2.95;1.83;;;23.50;59.00;;;;;;10531501;28;20116;-49
2022/08/22 05:44:46;;;;;;;4.60;2.07;;;23.60;59.00;;;;;;10532159;28;20036;-48
2022/08/22 05:50:07;;;;;;;2.05;1.60;;;23.60;59.00;;;;;;10531855;28;20371;-52
2022/08/22 05:55:24;;;;;;;3.13;2.20;;;23.60;59.10;;;;;;10532416;28;20028;-51
2022/08/22 06:00:31;;;;;;;3.35;1.70;;;23.60;59.00;;;;;;10540206;28;20031;-49
2022/08/22 06:05:38;;;;;;;2.30;1.90;;;23.60;59.00;;;;;;10522596;28;20078;-49
2022/08/22 06:10:44;;;;;;;4.25;2.17;;;23.60;59.00;;;;;;10522536;28;20027;-48
2022/08/22 06:16:21;;;;;;;2.05;1.85;;;23.60;59.00;;;;;;10540232;28;20040;-50
2022/08/22 06:21:36;;;;;;;3.78;1.40;;;23.60;59.10;;;;;;10539427;28;20571;-50
2022/08/22 06:26:43;;;;;;;4.10;1.80;;;23.60;59.10;;;;;;10520905;28;20111;-49
2022/08/22 06:31:47;;;;;;;2.55;1.55;;;23.60;59.00;;;;;;10479715;28;20737;-49
2022/08/22 06:36:51;;;;;;;2.85;1.83;;;23.60;59.10;;;;;;10519587;28;20030;-51
2022/08/22 06:42:13;;;;;;;2.45;2.10;;;23.60;59.00;;;;;;10520797;28;20440;-51
2022/08/22 06:47:59;;;;;;;3.17;1.85;;;23.60;59.00;;;;;;10521278;28;20050;-50
2022/08/22 06:53:06;;;;;;;2.15;1.70;;;23.60;59.10;;;;;;10402833;28;20407;-49
2022/08/22 06:58:26;;;;;;;2.78;1.83;;;23.60;59.20;;;;;;10520206;28;20039;-50
2022/08/22 07:03:37;;;;;;;2.75;1.50;;;23.60;59.30;;;;;;10538302;28;20027;-49
2022/08/22 07:08:38;;;;;;;2.20;1.70;;;23.60;59.30;;;;;;10519370;28;20115;-51
2022/08/22 07:13:50;;;;;;;1.77;1.40;;;23.50;59.20;;;;;;10519244;28;20024;-51
2022/08/22 07:18:52;;;;;;;2.65;1.63;;;23.50;59.30;;;;;;10520526;28;20024;-51
2022/08/22 07:23:53;;;;;;;3.72;2.05;;;23.50;59.30;;;;;;10537457;28;20028;-52
2022/08/22 07:29:22;;;;;;;2.75;1.90;;;23.50;59.30;;;;;;10516752;28;20067;-49
2022/08/22 07:34:58;;;;;;;3.10;2.00;;;23.50;59.40;;;;;;10498280;28;20043;-48
2022/08/22 07:40:34;;;;;;;3.38;1.80;;;23.50;59.30;;;;;;10502604;28;20052;-51
2022/08/22 07:45:46;;;;;;;2.92;1.50;;;23.50;59.30;;;;;;10520234;28;20028;-51
2022/08/22 07:51:07;;;;;;;2.25;1.67;;;23.50;59.40;;;;;;10517839;28;20023;-50
2022/08/22 07:56:27;;;;;;;2.72;2.13;;;23.50;59.40;;;;;;10518228;28;20040;-52
2022/08/22 08:01:29;;;;;;;2.60;1.88;;;23.50;59.40;;;;;;10535559;28;20024;-49
2022/08/22 08:06:31;;;;;;;3.00;1.70;;;23.50;59.40;;;;;;10516956;28;20024;-51
2022/08/22 08:11:41;;;;;;;1.98;1.73;;;23.50;59.50;;;;;;10517339;28;20379;-50
2022/08/22 08:17:00;;;;;;;1.70;1.60;;;23.50;59.50;;;;;;10534932;28;20073;-52
2022/08/22 08:22:01;;;;;;;;;;;23.50;59.50;;;;;;10517525;28;20024;-49
2022/08/22 08:32:33;;;;;;;3.60;2.40;;;23.50;59.70;;;;;;10482925;28;20126;-50
2022/08/22 08:37:54;;;;;;;3.30;2.40;;;23.50;59.80;;;;;;10534333;28;20082;-51
2022/08/22 08:48:45;;;;;;;5.43;1.95;;;23.50;59.90;;;;;;10533779;28;20471;-49
2022/08/22 08:54:14;;;;;;;3.67;1.95;;;23.50;59.90;;;;;;10518601;28;20440;-49
2022/08/22 08:59:48;;;;;;;2.83;1.98;;;23.60;59.90;;;;;;10515424;28;20742;-49
2022/08/22 09:05:14;;;;;;;4.47;2.40;;;23.60;59.80;;;;;;10516288;28;20161;-51
2022/08/22 09:10:45;;;;;;;3.08;1.92;;;23.60;59.80;;;;;;10533180;28;20052;-52
2022/08/22 09:16:36;;;;;;;2.38;1.77;;;23.70;59.90;;;;;;10517576;28;20047;-50
2022/08/22 09:22:18;;;;;;;4.50;2.28;;;23.70;59.80;;;;;;10514639;28;20421;-48
2022/08/22 09:27:32;;;;;;;3.08;1.80;;;23.70;59.80;;;;;;10525297;28;20337;-48
2022/08/22 09:33:08;;;;;;;2.78;1.77;;;23.80;59.90;;;;;;10477494;28;20032;-52
2022/08/22 09:38:23;;;;;;;5.20;2.08;;;23.80;59.80;;;;;;10531231;28;20033;-52
2022/08/22 09:43:40;;;;;;;6.40;2.20;;;23.80;59.70;;;;;;10531934;28;20031;-49
2022/08/22 09:49:18;;;;;;;3.70;2.03;;;23.80;59.70;;;;;;10531698;28;20384;-50
2022/08/22 09:54:38;;;;;;;5.10;2.97;;;23.80;59.60;;;;;;10508003;28;20051;-50
2022/08/22 10:00:39;;;;;;;3.05;2.03;;;23.80;59.50;;;;;;10531450;28;20107;-52
2022/08/22 10:05:55;;;;;;;4.97;1.98;;;23.90;59.50;;;;;;10532120;28;20076;-51
2022/08/22 10:11:10;;;;;;;2.90;2.08;;;23.90;59.30;;;;;;10513881;28;20394;-52
2022/08/22 10:16:46;;;;;;;2.58;1.73;;;23.90;59.20;;;;;;10531329;28;20028;-50
2022/08/22 10:22:16;;;;;;;2.65;1.50;;;23.90;59.30;;;;;;10531019;28;20123;-52
2022/08/22 10:27:39;;;;;;;4.13;2.20;;;24.00;59.30;;;;;;10524244;28;20029;-52
2022/08/22 10:32:49;;;;;;;3.28;1.92;;;24.00;59.30;;;;;;10495042;28;20383;-50
2022/08/22 10:38:26;;;;;;;4.47;2.10;;;24.00;59.30;;;;;;10513089;28;20023;-53
2022/08/22 10:43:56;;;;;;;3.60;1.80;;;24.00;59.90;;;;;;10511197;28;20059;-53
2022/08/22 10:49:20;;;;;;;2.60;1.70;;;24.10;59.30;;;;;;10522218;28;20522;-49
2022/08/22 10:54:41;;;;;;;2.78;1.83;;;24.10;59.30;;;;;;10522808;28;20032;-53
2022/08/22 10:59:55;;;;;;;2.45;1.70;;;24.10;58.80;;;;;;10519670;28;20437;-53
2022/08/22 11:05:29;;;;;;;3.28;1.88;;;24.20;59.00;;;;;;10538034;28;20031;-53
2022/08/22 11:11:09;;;;;;;2.70;1.98;;;24.20;59.10;;;;;;10537526;28;20059;-53
2022/08/22 11:16:40;;;;;;;2.55;1.73;;;24.20;59.20;;;;;;10537255;28;20494;-52
2022/08/22 11:22:00;;;;;;;3.63;2.30;;;24.20;59.10;;;;;;10537376;28;20029;-52
2022/08/22 11:27:34;;;;;;;2.60;1.90;;;24.20;59.10;;;;;;10517339;28;20121;-53
2022/08/22 11:32:57;;;;;;;3.45;2.22;;;24.20;59.30;;;;;;10500237;28;20036;-53
2022/08/22 11:38:31;;;;;;;2.55;1.98;;;24.20;59.20;;;;;;10536824;28;20032;-53
2022/08/22 11:43:46;;;;;;;3.28;1.83;;;24.20;59.20;;;;;;10536835;28;20490;-51
2022/08/22 11:49:23;;;;;;;2.55;1.77;;;24.20;59.10;;;;;;10536394;28;20028;-52
2022/08/22 11:54:38;;;;;;;3.05;2.00;;;24.20;59.00;;;;;;10535819;28;20430;-51
2022/08/22 11:59:45;;;;;;;3.50;1.95;;;24.30;58.90;;;;;;10517728;28;20584;-51
2022/08/22 12:04:56;;;;;;;3.20;1.88;;;24.30;58.70;;;;;;10535908;28;20047;-52
2022/08/22 12:10:14;;;;;;;3.72;1.98;;;24.20;58.20;;;;;;10517663;28;20031;-52
2022/08/22 12:15:37;;;;;;;2.65;1.88;;;24.20;58.30;;;;;;10535596;28;20067;-53
2022/08/22 12:20:56;;;;;;;2.67;1.60;;;24.20;58.30;;;;;;10535141;28;20028;-52
2022/08/22 12:26:47;;;;;;;3.17;2.30;;;24.20;58.60;;;;;;10534871;28;20021;-53
2022/08/22 12:32:34;;;;;;;2.80;1.85;;;24.20;58.50;;;;;;10431866;28;20040;-53
2022/08/22 12:37:53;;;;;;;3.88;2.10;;;24.20;58.20;;;;;;10476475;28;20034;-53
2022/08/22 12:43:12;;;;;;;2.38;1.65;;;24.20;58.20;;;;;;10449633;28;20064;-52
2022/08/22 12:48:46;;;;;;;4.78;2.40;;;24.20;58.60;;;;;;10450890;28;20486;-53
2022/08/22 12:54:32;;;;;;;2.92;2.00;;;24.20;58.50;;;;;;10449161;28;20441;-50
2022/08/22 12:59:40;;;;;;;3.88;2.05;;;24.20;58.40;;;;;;10449289;28;20055;-50
2022/08/22 13:04:55;;;;;;;3.07;1.80;;;24.20;58.40;;;;;;10448119;28;20045;-53
2022/08/22 13:10:45;;;;;;;3.83;1.73;;;24.20;58.30;;;;;;10465230;28;20461;-53
2022/08/22 13:15:58;;;;;;;3.05;1.95;;;24.20;58.50;;;;;;10450152;28;20024;-51
2022/08/22 13:21:05;;;;;;;2.53;1.70;;;24.20;58.40;;;;;;10449586;28;20753;-52
2022/08/22 13:26:26;;;;;;;3.65;1.98;;;24.20;58.30;;;;;;10448583;28;20029;-51
2022/08/22 13:31:37;;;;;;;2.60;1.75;;;24.20;58.00;;;;;;10463941;28;20025;-50
2022/08/22 13:36:48;;;;;;;3.67;1.92;;;24.10;58.30;;;;;;10486550;28;20668;-53
2022/08/22 13:41:55;;;;;;;2.85;2.03;;;24.20;58.40;;;;;;10518731;28;20522;-51
2022/08/22 13:47:19;;;;;;;3.08;1.92;;;24.20;57.90;;;;;;10530570;28;20555;-52
2022/08/22 13:52:40;;;;;;;2.90;1.83;;;24.20;58.00;;;;;;10530369;28;20028;-53
2022/08/22 13:57:56;;;;;;;2.25;1.80;;;24.10;58.00;;;;;;10530716;28;20028;-51
2022/08/22 14:03:12;;;;;;;2.47;2.13;;;24.10;58.20;;;;;;10530626;28;20032;-52
2022/08/22 14:08:22;;;;;;;3.33;1.83;;;24.10;57.80;;;;;;10530351;28;20028;-52
2022/08/22 14:13:50;;;;;;;2.83;2.00;;;24.10;58.50;;;;;;10529971;28;20028;-51
2022/08/22 14:19:15;;;;;;;2.45;1.75;;;24.10;57.80;;;;;;10535587;28;20028;-52
2022/08/22 14:24:31;;;;;;;3.65;1.85;;;24.10;58.40;;;;;;10522435;28;20059;-53
2022/08/22 14:29:51;;;;;;;2.85;1.65;;;24.10;57.80;;;;;;10512262;28;20081;-52
2022/08/22 14:35:20;;;;;;;4.82;3.05;;;24.00;57.90;;;;;;10520213;28;20048;-51
2022/08/22 14:40:26;;;;;;;3.25;2.15;;;24.10;57.90;;;;;;10538930;28;20528;-50
2022/08/22 14:45:36;;;;;;;3.47;2.28;;;24.00;57.70;;;;;;10538607;28;20525;-53
2022/08/22 14:51:01;;;;;;;4.25;2.13;;;24.00;58.30;;;;;;10537181;28;20028;-53
2022/08/22 14:56:23;;;;;;;3.80;2.13;;;24.10;58.10;;;;;;10538324;28;20406;-49
2022/08/22 15:01:29;;;;;;;3.67;1.60;;;24.00;57.90;;;;;;10536967;28;20040;-50
2022/08/22 15:06:30;;;;;;;2.75;2.25;;;24.10;57.50;;;;;;10537578;28;20028;-50
2022/08/22 15:11:33;;;;;;;3.55;1.70;;;24.10;57.80;;;;;;10537928;28;20042;-51
2022/08/22 15:16:40;;;;;;;2.65;1.42;;;24.10;57.80;;;;;;10519287;28;20031;-52
2022/08/22 15:21:41;;;;;;;3.60;1.85;;;24.10;57.40;;;;;;10536192;28;20048;-52
2022/08/22 15:26:51;;;;;;;4.78;1.85;;;24.10;57.30;;;;;;10534248;28;20456;-52
2022/08/22 15:32:00;;;;;;;3.38;2.03;;;24.10;57.70;;;;;;10492908;28;20030;-53
2022/08/22 15:37:16;;;;;;;3.97;2.10;;;24.10;57.90;;;;;;10493872;28;20480;-50
2022/08/22 15:42:26;;;;;;;2.25;1.75;;;24.10;57.50;;;;;;10494624;28;20048;-52
2022/08/22 15:47:38;;;;;;;3.42;1.67;;;24.10;57.10;;;;;;10493008;28;20035;-52
2022/08/22 15:53:22;;;;;;;3.17;2.38;;;24.20;56.90;;;;;;10494387;28;20029;-52
2022/08/22 15:58:24;;;;;;;2.67;1.52;;;24.10;57.10;;;;;;10494060;28;20108;-51
2022/08/22 16:03:29;;;;;;;4.88;2.47;;;24.20;56.50;;;;;;10493603;28;20054;-52
2022/08/22 16:08:51;;;;;;;3.83;2.33;;;24.10;57.00;;;;;;10493649;28;20026;-52
2022/08/22 16:14:22;;;;;;;3.17;1.90;;;24.10;57.50;;;;;;10491842;28;20040;-52
2022/08/22 16:19:28;;;;;;;3.08;2.03;;;24.10;57.60;;;;;;10475289;28;20025;-49
2022/08/22 16:24:31;;;;;;;2.45;1.95;;;24.10;57.60;;;;;;10491328;28;20021;-51
2022/08/22 16:29:38;;;;;;;2.85;2.35;;;24.10;57.50;;;;;;10516090;28;20020;-53
2022/08/22 16:34:44;;;;;;;2.70;1.77;;;24.10;57.40;;;;;;10493980;28;20032;-50
2022/08/22 16:39:57;;;;;;;3.08;1.98;;;24.10;57.60;;;;;;10474342;28;20064;-52
2022/08/22 16:45:07;;;;;;;3.08;2.15;;;24.10;57.50;;;;;;10492232;28;20036;-51
2022/08/22 16:50:29;;;;;;;3.63;2.17;;;24.20;57.80;;;;;;10492320;28;20430;-51
2022/08/22 16:55:29;;;;;;;2.67;1.90;;;24.10;57.70;;;;;;10474500;28;20040;-51
2022/08/22 17:01:01;;;;;;;3.35;2.08;;;24.10;56.90;;;;;;10491414;28;20051;-52
2022/08/22 17:06:31;;;;;;;2.40;1.85;;;24.10;57.70;;;;;;10491258;28;20040;-51
2022/08/22 17:11:50;;;;;;;4.13;2.08;;;24.10;58.00;;;;;;10491472;28;20028;-52
2022/08/22 17:17:18;;;;;;;3.38;1.90;;;24.10;57.90;;;;;;10491059;28;20103;-51
2022/08/22 17:22:41;;;;;;;3.17;1.83;;;24.10;57.90;;;;;;10490597;28;20434;-53
2022/08/22 17:27:50;;;;;;;2.30;1.60;;;24.10;57.70;;;;;;10483858;28;20020;-52
2022/08/22 17:33:10;;;;;;;2.95;1.80;;;24.10;57.90;;;;;;10507462;28;20583;-53
2022/08/22 17:38:42;;;;;;;2.40;1.63;;;24.10;57.70;;;;;;10490516;28;20108;-52
2022/08/22 17:44:24;;;;;;;3.28;2.30;;;24.10;58.10;;;;;;10490096;28;20044;-51
2022/08/22 17:49:40;;;;;;;2.58;1.73;;;24.10;58.30;;;;;;10489985;28;20032;-52
2022/08/22 17:55:06;;;;;;;3.67;2.00;;;24.10;57.80;;;;;;10489799;28;20032;-52
2022/08/22 18:00:34;;;;;;;2.33;1.70;;;24.10;57.80;;;;;;10489937;28;20111;-51
2022/08/22 18:06:03;;;;;;;2.20;1.60;;;24.10;58.20;;;;;;10472218;28;20107;-49
2022/08/22 18:11:26;;;;;;;2.63;1.93;;;24.10;58.20;;;;;;10474536;28;20586;-52
2022/08/22 18:16:49;;;;;;;2.33;1.95;;;24.10;58.30;;;;;;10473543;28;20361;-52
2022/08/22 18:22:05;;;;;;;2.53;1.85;;;24.10;58.30;;;;;;10489418;28;20028;-52
2022/08/22 18:27:45;;;;;;;2.67;1.83;;;24.10;58.40;;;;;;10476063;28;20024;-51
2022/08/22 18:33:16;;;;;;;3.10;1.88;;;24.10;58.30;;;;;;10506475;28;20024;-52
2022/08/22 18:38:37;;;;;;;2.08;1.60;;;24.10;58.20;;;;;;10471932;28;20071;-51
2022/08/22 18:43:49;;;;;;;2.78;1.63;;;24.10;58.20;;;;;;10472305;28;20064;-50
2022/08/22 18:48:49;;;;;;;3.47;2.05;;;24.10;58.10;;;;;;10471660;28;20030;-52
2022/08/22 18:54:19;;;;;;;2.92;2.00;;;24.10;58.00;;;;;;10488916;28;20031;-53
2022/08/22 18:59:38;;;;;;;2.28;1.33;;;24.10;58.00;;;;;;10437044;28;20656;-52
2022/08/22 19:05:12;;;;;;;3.17;1.92;;;24.10;58.00;;;;;;10491650;28;20036;-53
2022/08/22 19:10:33;;;;;;;4.43;2.20;;;24.10;58.10;;;;;;10496329;28;20567;-52
2022/08/22 19:15:57;;;;;;;2.10;1.77;;;24.20;58.10;;;;;;10477808;28;20033;-52
2022/08/22 19:27:16;;;;;;;2.70;1.80;;;24.20;58.10;;;;;;10497029;28;20044;-49
2022/08/22 19:32:45;;;;;;;2.17;1.63;;;24.10;58.10;;;;;;10532166;28;20032;-50
2022/08/22 19:38:01;;;;;;;1.50;1.40;;;24.20;58.10;;;;;;10492856;28;20051;-51
2022/08/22 19:43:18;;;;;;;3.08;1.60;;;24.20;58.00;;;;;;10475022;28;20045;-52
2022/08/22 19:48:32;;;;;;;1.90;1.65;;;24.10;57.90;;;;;;10474599;28;20020;-51
2022/08/22 19:54:00;;;;;;;2.22;1.67;;;24.20;57.90;;;;;;10474941;28;20039;-48
2022/08/22 19:59:14;;;;;;;2.15;1.75;;;24.20;57.90;;;;;;10492072;28;20029;-52
2022/08/22 20:04:37;;;;;;;2.08;1.58;;;24.20;57.80;;;;;;10491535;28;20020;-51
2022/08/22 20:10:03;;;;;;;1.80;1.50;;;24.20;57.90;;;;;;10473957;28;20112;-51
2022/08/22 20:15:21;;;;;;;2.05;1.60;;;24.10;57.70;;;;;;10474540;28;20032;-52
2022/08/22 20:20:22;;;;;;;2.07;1.43;;;24.20;57.80;;;;;;10474277;28;20025;-52
2022/08/22 20:25:49;;;;;;;2.60;1.70;;;24.10;57.70;;;;;;10490777;28;20263;-51
2022/08/22 20:30:57;;;;;;;2.00;1.42;;;24.20;57.70;;;;;;10508907;28;20032;-52
2022/08/22 20:36:04;;;;;;;2.13;1.60;;;24.10;57.70;;;;;;10498698;28;20043;-51
2022/08/22 20:41:43;;;;;;;3.20;1.60;;;24.20;57.80;;;;;;10472646;28;20041;-50
2022/08/22 20:47:19;;;;;;;2.90;2.30;;;24.10;57.70;;;;;;10489872;28;20052;-52
2022/08/22 20:52:37;;;;;;;3.28;1.67;;;24.10;57.70;;;;;;10455727;28;20369;-51
2022/08/22 20:57:50;;;;;;;2.50;1.83;;;24.10;57.70;;;;;;10455329;28;20547;-50
2022/08/22 21:03:37;;;;;;;3.08;1.98;;;24.10;57.60;;;;;;10489180;28;20301;-50
2022/08/22 21:08:39;;;;;;;3.30;1.92;;;24.10;57.70;;;;;;10489566;28;20029;-50
2022/08/22 21:13:40;;;;;;;3.20;2.10;;;24.10;57.70;;;;;;10489144;28;20514;-49
2022/08/22 21:18:51;;;;;;;3.17;1.70;;;24.10;57.60;;;;;;10489106;28;20036;-52
2022/08/22 21:23:58;;;;;;;3.13;2.08;;;24.10;57.60;;;;;;10488879;28;20140;-51
2022/08/22 21:29:22;;;;;;;3.13;2.38;;;24.10;57.60;;;;;;10490835;28;20369;-50
2022/08/22 21:34:39;;;;;;;3.88;2.15;;;24.10;57.60;;;;;;10492277;28;20035;-50
2022/08/22 21:39:56;;;;;;;3.72;1.85;;;24.10;57.60;;;;;;10471359;28;20039;-52
2022/08/22 21:45:37;;;;;;;2.70;1.95;;;24.10;57.60;;;;;;10488468;28;20245;-49
2022/08/22 21:50:40;;;;;;;3.35;1.90;;;24.00;57.50;;;;;;10487929;28;20037;-49
2022/08/22 21:55:46;;;;;;;3.85;2.05;;;24.10;57.60;;;;;;10470364;28;20391;-49
2022/08/22 22:00:57;;;;;;;4.35;1.98;;;24.10;57.70;;;;;;10487767;28;20136;-52
2022/08/22 22:06:02;;;;;;;3.03;1.98;;;24.10;57.60;;;;;;10487560;28;20025;-49
2022/08/22 22:11:10;;;;;;;2.40;2.08;;;24.10;57.60;;;;;;10469935;28;20029;-51
2022/08/22 22:16:11;;;;;;;3.90;2.33;;;24.00;57.50;;;;;;10453817;28;20028;-51
2022/08/22 22:21:12;;;;;;;2.90;1.92;;;24.00;57.60;;;;;;10469334;28;20132;-52
2022/08/22 22:26:13;;;;;;;3.45;2.17;;;24.10;57.70;;;;;;10469620;28;20084;-51
2022/08/22 22:31:17;;;;;;;2.35;2.00;;;24.10;57.70;;;;;;10526471;28;20024;-53
2022/08/22 22:36:23;;;;;;;2.25;1.77;;;24.10;57.70;;;;;;10475561;28;20050;-49
2022/08/22 22:41:24;;;;;;;3.70;2.10;;;24.00;57.70;;;;;;10476897;28;20071;-52
2022/08/22 22:46:26;;;;;;;2.13;1.80;;;24.00;57.70;;;;;;10476957;28;20020;-52
2022/08/22 22:51:26;;;;;;;2.75;2.00;;;24.00;58.30;;;;;;10477346;28;20028;-51
2022/08/22 22:56:27;;;;;;;3.35;2.17;;;24.00;57.70;;;;;;10494641;28;20033;-50
2022/08/22 23:01:28;;;;;;;2.63;2.38;;;24.00;57.70;;;;;;10494531;28;20029;-49
2022/08/22 23:06:30;;;;;;;3.45;2.25;;;24.00;57.70;;;;;;10494698;28;20086;-50
2022/08/22 23:11:31;;;;;;;2.53;2.33;;;24.00;57.80;;;;;;10459962;28;20037;-50
2022/08/22 23:16:32;;;;;;;2.53;1.88;;;24.00;57.80;;;;;;10493972;28;20526;-51
2022/08/22 23:21:32;;;;;;;2.65;1.90;;;24.00;57.80;;;;;;10493304;28;20032;-52
2022/08/22 23:26:33;;;;;;;2.83;2.28;;;24.00;57.90;;;;;;10493708;28;20104;-51
2022/08/22 23:31:40;;;;;;;2.80;2.42;;;24.00;57.90;;;;;;10534963;28;20024;-48
2022/08/22 23:36:45;;;;;;;4.22;2.35;;;24.00;57.90;;;;;;10495548;28;20116;-53
2022/08/22 23:41:46;;;;;;;4.30;2.35;;;24.00;57.90;;;;;;10474779;28;20095;-51
2022/08/22 23:46:47;;;;;;;3.28;2.17;;;24.00;57.90;;;;;;10492328;28;20100;-49
2022/08/22 23:51:49;;;;;;;4.20;2.20;;;24.00;57.90;;;;;;10473586;28;20028;-50
2022/08/22 23:56:54;;;;;;;3.50;2.47;;;24.00;57.90;;;;;;10474143;28;20029;-50
